Santa Rosa Beach, Florida
Current Conditions -  °F | °C
As of 12:53 PM on Monday 20 Oct 2014 (Local Time) from KDTS Reporting Station
Few Clouds Few Clouds  
Wind Chill: 78°   Ceiling: Unl
Heat Index: 79°   Visibility: 10mi
Dew Point: 60°   Wind: 6mph
Humidity: 54%   Direction: NA
Pressure: 30.03"   Gusts: NA
Location:  30.4°N, 86.23°W
Report Text: KDTS 201753Z AUTO VRB05KT 10SM FEW028 26/16 A3003 RMK AO2 SLP167 T02560156 10256 20161 58016 TSNO
Loading
Personal Weather Stations






























Interactive Weather Map New forecast layout! Learn more

10-Day Weather Forecast

Advertisements
Track Severe Weather on mobile